Metar-ilmailun säätiedot     EFOU Oulu Airport
Lämpötila
1°C Lämpötila
-3°C Kastepiste
75% Kosteus



Tuuli
6 M/S
14 MPH
23 KM/H
12 KTS



240°
L-LO
Nykyiset olosuhteet

Selkeää Selkeää
Paine 994.92 (hPa) - 29.38 (inHg)
Näkyvyys 6.2 (maili) - 10 (km)
Lentokenttä
Lentokentän koodi EFOU

Sijainti: Oulu Airport
Etäisyys:: 83 (km)

Metar:
EFOU 281850Z AUTO 24012KT 220V280 CAVOK 01/M03 Q0995

Aika: 28-01-2023 20:50 EET